Terminal Aerodrome Forecast
Issued by NWS

Home | Current Version | Previous Version | Text Only | Print | Product List | Glossary On
Versions: 1 2 3 4 5 6 7 8 9 10 11 12 13 14 15 16 17 18 19 20 21 22 23 24
487
FTUS44 KEPZ 180528
TAFTCS
TAF
KTCS 180528Z 1806/1906 29006KT P6SM FEW030 SCT070
     FM181000 VRB05KT 2SM BR SCT004 SCT030
      TEMPO 1811/1815 1/2SM FG VV003
     FM181700 16007KT P6SM SCT040 SCT100
     FM190000 21009KT P6SM FEW040
     FM190400 29007KT P6SM SKC=

USA.gov is the U.S. government's official web portal to all federal, state and local government web resources and services.